23 mei 2022

Tijd Code Weer Temp. Zicht Wolken Wind METAR/SPECI
12:00
V
11 °C 14 km - 170°   170° 8 kt METAR CYTZ 231600Z AUTO 17008KT 9SM CLR 11/ A3034 RMK SLP277
11:00
V
0 °C 14 km - 190°   190° 7 kt METAR CYTZ 231500Z AUTO 19007KT 9SM CLR A3033 RMK T MISG DP MISG DENSITY ALT MISG
10:00
V
11 °C 14 km - 170°   170° 9 kt METAR CYTZ 231400Z AUTO 17009KT 9SM CLR 11/ A3034 RMK PRESFR SLP276
09:00
V
11 °C 14 km - 200°   200° 7 kt METAR CYTZ 231300Z AUTO 20007KT 190V270 9SM CLR 11/ A3034 RMK SLP277
08:00
V
11 °C 14 km - 280°   280° 4 kt METAR CYTZ 231200Z AUTO 28004KT 210V310 9SM SCT081 11/ A3032 RMK DP MISG SLP272
07:00
V
9 °C 14 km - 350°   350° 5 15 kt METAR CYTZ 231100Z AUTO 35005G15KT 9SM CLR 09/02 A3031 RMK SLP266
06:00
V
9 °C 14 km - 300°   300° 5 16 kt METAR CYTZ 231000Z AUTO 30005G16KT 270V350 9SM CLR 09/ A3030 RMK SLP265
05:00
V
9 °C 14 km 8.100 ft 310°   310° 6 kt METAR CYTZ 230900Z AUTO 31006KT 280V340 9SM OVC081 09/01 A3030 RMK SLP263
04:00
V
9 °C 14 km 8.100 ft 320°   320° 8 17 kt METAR CYTZ 230800Z AUTO 32008G17KT 9SM OVC081 09/03 A3029 RMK SLP262
03:00
V
9 °C 14 km 8.100 ft 320°   320° 11 17 kt METAR CYTZ 230700Z AUTO 32011G17KT 9SM OVC081 09/03 A3029 RMK SLP262
02:00
V
10 °C 14 km - 320°   320° 10 kt METAR CYTZ 230600Z AUTO 32010KT 9SM CLR 10/05 A3030 RMK SLP263
01:00
V
11 °C 14 km - 310°   310° 5 kt METAR CYTZ 230500Z AUTO 31005KT 9SM CLR 11/05 A3028 RMK SLP256
00:00
V
11 °C 14 km - 320°   320° 10 kt METAR CYTZ 230400Z AUTO 32010KT 9SM CLR 11/05 A3026 RMK SLP250

22 mei 2022

Tijd Code Weer Temp. Zicht Wolken Wind METAR/SPECI
23:00
V
12 °C 14 km - 320°   320° 12 kt METAR CYTZ 230300Z AUTO 32012KT 280V340 9SM CLR 12/06 A3025 RMK SLP247
22:00
V
11 °C 14 km - 250°   250° 6 kt METAR CYTZ 230200Z AUTO 25006KT 9SM CLR 11/07 A3024 RMK SLP243
21:00
V
14 °C 14 km - 320°   320° 11 16 kt METAR CYTZ 230100Z AUTO 32011G16KT 9SM CLR 14/06 A3021 RMK SLP234
20:00
V
15 °C 14 km - 320°   320° 17 kt METAR CYTZ 230000Z AUTO 32017KT 9SM SCT032 15/ A3019 RMK SLP227
19:13
V
15 °C 14 km - 320°   320° 18 kt METAR CYTZ 222313Z AUTO 32018KT 310V010 9SM FEW037 15/ A3017 RMK SLP220
19:00
V
16 °C 14 km - 330°   330° 8 20 kt METAR CYTZ 222300Z AUTO 33008G20KT 280V010 9SM FEW037 16/09 A3017 RMK SLP219
18:00
V
13 °C 14 km 4.000 ft 210°   210° 5 kt METAR CYTZ 222200Z AUTO 21005KT 180V320 9SM SCT033 BKN040 BKN047 BKN060 13/ A3015 RMK PRESRR SLP214
17:00
V
0 °C 14 km 3.500 ft 180°   180° 8 kt METAR CYTZ 222100Z AUTO 18008KT 170V280 9SM BKN035 A3013 RMK T MISG DP MISG DENSITY ALT MISG
16:00
V
15 °C 14 km - 300°   300° 12 17 kt METAR CYTZ 222000Z AUTO 30012G17KT 9SM SCT130 SCT150 15/ A3012 RMK DP MISG SLP203
15:40
V
0 °C 14 km 13.000 ft 310°   310° 17 kt METAR CYTZ 221940Z AUTO 31017KT 9SM SCT110 BKN130 A3011 RMK T MISG DP MISG DENSITY ALT MISG
15:00
V
14 °C 14 km 11.000 ft 290°   290° 7 15 kt METAR CYTZ 221900Z AUTO 29007G15KT 9SM OVC110 14/09 A3010 RMK SLP196
14:00
V
13 °C 14 km 9.100 ft 310°   310° 8 18 kt METAR CYTZ 221800Z AUTO 31008G18KT 260V340 9SM OVC091 13/ A3009 RMK SLP194
13:00
V
12 °C 14 km 5.500 ft 350°   350° 10 20 kt METAR CYTZ 221700Z AUTO 35010G20KT 9SM OVC055 12/09 A3006 RMK SLP181
12:41
V
12 °C 14 km 5.000 ft 340°   340° 10 27 kt METAR CYTZ 221641Z AUTO 34010G27KT 9SM FEW040 OVC050 12/09 A3005 RMK SLP179
12:23
V
12 °C 14 km 4.000 ft 330°   330° 17 29 kt METAR CYTZ 221623Z AUTO 33017G29KT 9SM -RA OVC040 12/09 A3004 RMK SLP177
12:00
V
12 °C 14 km 3.600 ft 340°   340° 13 22 kt METAR CYTZ 221600Z AUTO 34013G22KT 310V020 9SM FEW029 OVC036 12/09 A3003 RMK SLP172
11:34
M
12 °C 14 km 2.600 ft 330°   330° 17 26 kt METAR CYTZ 221534Z AUTO 33017G26KT 9SM OVC026 12/09 A3002 RMK SLP170
11:26
M
11 °C 14 km 2.600 ft 330°   330° 15 25 kt METAR CYTZ 221526Z AUTO 33015G25KT 9SM -RA OVC026 11/09 A3002 RMK PRESRR SLP168
11:00
M
11 °C 14 km 2.400 ft 340°   340° 14 29 kt METAR CYTZ 221500Z AUTO 34014G29KT 9SM -RA FEW010 OVC024 11/09 A2998 RMK SLP157
10:47
M
11 °C 14 km 2.400 ft 340°   340° 15 34 kt METAR CYTZ 221447Z AUTO 34015G34KT 9SM SCT012 OVC024 11/10 A2999 RMK SLP160
10:37
I
12 °C 4,8 km 1.200 ft 330°   330° 24 31 kt METAR CYTZ 221437Z AUTO 33024G31KT 3SM -RA BR BKN012 OVC019 12/ A2998 RMK SLP157
10:28
M
14 °C 8,0 km 1.200 ft 330°   330° 22 27 kt METAR CYTZ 221428Z AUTO 33022G27KT 5SM HZ OVC012 14/ A2998 RMK PRESRR DP MISG SLP156
10:24
M
15 °C 6,4 km 1.000 ft 320°   320° 21 27 kt METAR CYTZ 221424Z AUTO 32021G27KT 4SM -RA BR BKN010 OVC018 15/ A2998 RMK SLP155 DENSITY ALT 300FT
10:15
I
15 °C 3,6 km 1.000 ft 320°   320° 8 16 kt METAR CYTZ 221415Z AUTO 32008G16KT 2 1/4SM -RA BR BKN010 OVC018 15/ A2997 RMK SLP152 DENSITY ALT 300FT
10:06
I
15 °C 4,0 km 800 ft 330°   330° 11 18 kt METAR CYTZ 221406Z AUTO 33011G18KT 250V340 2 1/2SM -RA BR OVC008 15/ A2997 RMK SLP151 DENSITY ALT 300FT
10:02
I
15 °C 8,0 km 800 ft 320°   320° 11 17 kt METAR CYTZ 221402Z AUTO 32011G17KT 250V340 5SM HZ OVC008 15/ A2996 RMK PRESRR DP MISG SLP149 DENSITY ALT 300FT
09:00
M
15 °C 14 km 1.000 ft 070°   070° 6 kt METAR CYTZ 221300Z AUTO 07006KT 050V110 9SM OVC010 15/ A2993 RMK DP MISG SLP139 DENSITY ALT 300FT
08:00
M
15 °C 14 km 1.200 ft Var   Var 2 kt METAR CYTZ 221200Z AUTO VRB02KT 9SM OVC012 15/ A2995 RMK DP MISG SLP143 DENSITY ALT 300FT
07:00
M
15 °C 14 km 1.600 ft 080°   080° 8 kt METAR CYTZ 221100Z AUTO 08008KT 050V130 9SM OVC016 15/ A2995 RMK DP MISG SLP144 DENSITY ALT 300FT
06:00
M
16 °C 14 km 2.000 ft 070°   070° 7 kt METAR CYTZ 221000Z AUTO 07007KT 9SM OVC020 16/ A2994 RMK SLP140 DENSITY ALT 400FT
05:00
M
15 °C 14 km 2.400 ft 080°   080° 6 kt METAR CYTZ 220900Z AUTO 08006KT 9SM OVC024 15/10 A2996 RMK SLP146 DENSITY ALT 300FT
04:44
M
14 °C 14 km 2.400 ft 050°   050° 11 kt METAR CYTZ 220844Z AUTO 05011KT 9SM OVC024 14/ A2996 RMK SLP147
04:00
M
13 °C 14 km 2.800 ft 070°   070° 5 kt METAR CYTZ 220800Z AUTO 07005KT 040V180 9SM OVC028 13/ A2997 RMK SLP153
03:00
M
16 °C 14 km 2.600 ft 180°   180° 2 kt METAR CYTZ 220700Z AUTO 18002KT 9SM OVC026 16/ A2997 RMK SLP150 DENSITY ALT 400FT
02:50
M
16 °C 14 km 2.600 ft Var   000° 0 kt METAR CYTZ 220650Z AUTO 00000KT 9SM OVC026 16/13 A2997 RMK SLP151 DENSITY ALT 400FT
02:00
M
16 °C 14 km 2.200 ft 160°   160° 3 kt METAR CYTZ 220600Z AUTO 16003KT 9SM OVC022 16/13 A2997 RMK SLP151 DENSITY ALT 400FT
01:00
M
16 °C 14 km 2.200 ft 100°   100° 4 kt METAR CYTZ 220500Z AUTO 10004KT 050V120 9SM OVC022 16/ A2998 RMK SLP154 DENSITY ALT 400FT
00:41
M
16 °C 14 km 2.400 ft 060°   060° 11 kt METAR CYTZ 220441Z AUTO 06011KT 9SM OVC024 16/ A2998 RMK DP MISG SLP156 DENSITY ALT 300FT
00:00
V
15 °C 14 km 3.000 ft 050°   050° 13 kt METAR CYTZ 220400Z AUTO 05013KT 9SM BKN030 15/13 A3000 RMK SLP161

21 mei 2022

Tijd Code Weer Temp. Zicht Wolken Wind METAR/SPECI
23:38
V
14 °C 14 km 3.200 ft 040°   040° 11 kt METAR CYTZ 220338Z AUTO 04011KT 9SM OVC032 14/ A3002 RMK PRESFR SLP170
23:18
V
13 °C 14 km 3.200 ft Var   000° 0 kt METAR CYTZ 220318Z AUTO 00000KT 9SM OVC032 13/ A3004 RMK SLP176
23:00
V
13 °C 14 km 3.400 ft 250°   250° 6 kt METAR CYTZ 220300Z AUTO 25006KT 210V280 9SM -RA BKN034 OVC140 13/12 A3004 RMK SLP176
22:12
V
15 °C 14 km 3.400 ft 150°   150° 7 kt METAR CYTZ 220212Z AUTO 15007KT 9SM -RA BKN034 OVC150 15/13 A3002 RMK SLP167
22:00
V
15 °C 14 km 3.400 ft 170°   170° 11 kt METAR CYTZ 220200Z AUTO 17011KT 9SM BKN034 BKN110 BKN150 15/ A3001 RMK DP MISG SLP165
21:00
V
0 °C 14 km - 330°   330° 4 kt METAR CYTZ 220100Z AUTO 33004KT 270V010 9SM FEW130 SCT230 A2996 RMK T MISG DP MISG DENSITY ALT MISG
20:00
V
0 °C 14 km - 350°   350° 6 kt METAR CYTZ 220000Z AUTO 35006KT 300V010 9SM CLR A2994 RMK T MISG DP MISG DENSITY ALT MISG
19:00
V
23 °C 14 km - 330°   330° 13 23 kt METAR CYTZ 212300Z AUTO 33013G23KT 9SM CLR 23/ A2993 RMK PRESRR DP MISG SLP137 DENSITY ALT 1300FT
18:00
V
25 °C 14 km - 300°   300° 14 kt METAR CYTZ 212200Z AUTO 30014KT 9SM FEW120 25/ A2995 RMK DP MISG SLP142 DENSITY ALT 1500FT
17:00
V
25 °C 14 km - 300°   300° 18 25 kt METAR CYTZ 212100Z AUTO 30018G25KT 9SM FEW044 SCT130 25/ A2993 RMK DP MISG SLP136 DENSITY ALT 1500FT
16:39
V
0 °C 14 km 5.500 ft 300°   300° 21 kt METAR CYTZ 212039Z AUTO 30021KT 190V310 9SM SCT044 BKN055 BKN073 A2993 RMK T MISG DP MISG DENSITY ALT MISG
16:00
V
0 °C 14 km 7.100 ft 240°   240° 6 kt METAR CYTZ 212000Z AUTO 24006KT 200V300 9SM BKN071 A2993 RMK T MISG DP MISG DENSITY ALT MISG
15:00
V
15 °C 14 km - 300°   300° 11 kt METAR CYTZ 211900Z AUTO 30011KT 240V320 9SM CLR 15/ A2991 RMK PRESRR SLP131 DENSITY ALT 300FT
14:00
V
0 °C 14 km 14.000 ft 160°   160° 7 kt METAR CYTZ 211800Z AUTO 16007KT 140V230 9SM BKN140 BKN160 A2984 RMK LTNG DIST NE PCPN 3.3MM PAST HR T MISG DP MISG DENSITY ALT MISG
13:48
V
0 °C 14 km 13.000 ft 210°   210° 5 kt METAR CYTZ 211748Z AUTO 21005KT 180V340 9SM FEW096 BKN130 OVC150 A2984 RMK LTNG DIST NE E PRESRR T MISG DP MISG DENSITY ALT MISG
13:41
V
0 °C 14 km 13.000 ft Var   Var 7 kt METAR CYTZ 211741Z AUTO VRB07KT 9SM -RA FEW044 SCT095 OVC130 A2983 RMK LTNG DIST N NE E PRESFR T MISG DP MISG DENSITY ALT MISG
13:29
V
19 °C 14 km 9.400 ft 320°   320° 10 23 kt METAR CYTZ 211729Z AUTO 32010G23KT 260V360 9SM -TSRA SCT048 SCT071 BKN094 OVC140 19/ A2985 RMK LTNG DIST ALQDS PRESFR DP MISG SLP109 DENSITY ALT 900FT
13:22
V
19 °C 14 km 7.100 ft 330°   330° 13 26 kt METAR CYTZ 211722Z AUTO 33013G26KT 270V360 9SM TS SCT048 BKN071 OVC091 19/ A2987 RMK LTNG DIST ALQDS PRESFR DP MISG SLP117 DENSITY ALT 800FT
13:08
V
0 °C 14 km 8.300 ft 280°   280° 38 48 kt METAR CYTZ 211708Z AUTO 28038G48KT 220V300 9SM -TSRA SCT049 SCT071 OVC083 A2995 RMK LTNG DIST ALQDS PRESRR T MISG DP MISG DENSITY ALT MISG
13:03
V
18 °C 14 km 8.100 ft 260°   260° 18 25 kt METAR CYTZ 211703Z AUTO 26018G25KT 210V290 9SM TS FEW049 BKN081 BKN090 18/ A2994 RMK LTNG DIST ALQDS PRESRR DP MISG SLP141 DENSITY ALT 700FT
13:00
V
0 °C 14 km 8.100 ft 220°   220° 14 25 kt METAR CYTZ 211700Z AUTO 22014G25KT 9SM VCTS FEW055 BKN081 A2992 RMK LTNG DIST ALQDS PRESRR T MISG DP MISG DENSITY ALT MISG
12:57
V
0 °C 14 km 8.100 ft 220°   220° 13 23 kt METAR CYTZ 211657Z AUTO 22013G23KT 9SM VCTS BKN081 A2992 RMK LTNG DIST SW W NW PRESRR T MISG DP MISG DENSITY ALT MISG
12:36
V
0 °C 14 km 8.600 ft 200°   200° 14 kt METAR CYTZ 211636Z AUTO 20014KT 9SM BKN086 A2986 RMK LTNG DIST W T MISG DP MISG DENSITY ALT MISG
12:00
V
20 °C 14 km 8.600 ft Var   Var 4 kt METAR CYTZ 211600Z AUTO VRB04KT 9SM OVC086 20/ A2986 RMK DP MISG SLP113 DENSITY ALT 1000FT
11:00
V
0 °C 14 km - 220°   220° 7 kt METAR CYTZ 211500Z AUTO 22007KT 190V290 9SM CLR A2984 RMK T MISG DP MISG DENSITY ALT MISG
Oudere gegevens

Installeer onze app

Gemakkelijke toegang tot al het luchtvaartweer op je mobiele telefoon en tablet.
Met veel functies die niet op de website beschikbaar zijn, zoals offline ondersteuning en een persoonlijke lijst van vliegvelden.

Met cookies volgen wij en derde partijen jouw internetgedrag binnen onze site. Als je verdergaat gaan we ervan uit dat je dit goedvindt. Meer info